createdAt,value
2017-12-07T00:00:03.494Z,7.70
2017-12-07T00:01:04.200Z,7.67
2017-12-07T00:02:04.911Z,7.70
2017-12-07T00:03:05.615Z,7.75
2017-12-07T00:04:06.335Z,7.63
2017-12-07T00:05:07.040Z,7.72
2017-12-07T00:06:07.759Z,7.70
2017-12-07T00:07:08.480Z,7.67
2017-12-07T00:08:09.188Z,7.73
2017-12-07T00:09:09.907Z,7.72
2017-12-07T00:10:10.613Z,7.72
2017-12-07T00:11:11.323Z,7.63
2017-12-07T00:12:12.039Z,7.66
2017-12-07T00:13:12.744Z,7.70
2017-12-07T00:14:13.449Z,7.66
2017-12-07T00:15:14.153Z,7.67
2017-12-07T00:16:14.875Z,7.66
2017-12-07T00:17:15.579Z,7.56
2017-12-07T00:18:16.285Z,7.48
2017-12-07T00:19:16.990Z,7.54
2017-12-07T00:20:17.701Z,7.47
2017-12-07T00:21:18.399Z,7.51
2017-12-07T00:22:19.107Z,7.54
2017-12-07T00:23:19.809Z,7.54
2017-12-07T00:24:20.519Z,7.70
2017-12-07T00:25:21.218Z,7.48
2017-12-07T00:26:21.937Z,7.53
2017-12-07T00:27:22.644Z,7.54
2017-12-07T00:28:23.349Z,7.54
2017-12-07T00:29:24.055Z,7.50
2017-12-07T00:30:24.775Z,7.48
2017-12-07T00:31:25.483Z,7.50
2017-12-07T00:32:26.202Z,7.54
2017-12-07T00:33:26.919Z,7.54
2017-12-07T00:34:27.624Z,7.51
2017-12-07T00:35:28.329Z,7.50
2017-12-07T00:36:29.035Z,7.47
2017-12-07T00:37:29.746Z,7.50
2017-12-07T00:38:30.464Z,7.53
2017-12-07T00:39:31.170Z,7.56
2017-12-07T00:40:31.876Z,7.48
2017-12-07T00:41:32.580Z,7.48
2017-12-07T00:42:33.286Z,7.54
2017-12-07T00:43:33.992Z,7.45
2017-12-07T00:44:34.698Z,7.57
2017-12-07T00:45:35.417Z,7.56
2017-12-07T00:46:36.139Z,7.51
2017-12-07T00:47:36.845Z,7.51
2017-12-07T00:48:37.553Z,7.51
2017-12-07T00:49:38.259Z,7.50
2017-12-07T00:50:38.976Z,7.56
2017-12-07T00:51:39.696Z,7.45
2017-12-07T00:52:40.418Z,7.47
2017-12-07T00:53:41.124Z,7.40
2017-12-07T00:54:41.830Z,7.51
2017-12-07T00:55:42.536Z,7.43
2017-12-07T00:56:43.241Z,7.43
2017-12-07T00:57:43.946Z,7.43
2017-12-07T00:58:44.653Z,7.43
2017-12-07T00:59:45.359Z,7.42
2017-12-07T01:00:46.068Z,7.47
2017-12-07T01:03:02.599Z,7.39
2017-12-07T01:04:03.306Z,7.43
2017-12-07T01:05:04.013Z,7.42
2017-12-07T01:06:04.720Z,7.42
2017-12-07T01:07:05.438Z,7.39
2017-12-07T01:08:06.395Z,7.35
2017-12-07T01:09:07.101Z,7.47
2017-12-07T01:10:07.808Z,7.42
2017-12-07T01:11:08.515Z,7.40
2017-12-07T01:12:09.221Z,7.45
2017-12-07T01:13:09.928Z,7.36
2017-12-07T01:14:10.634Z,7.43
2017-12-07T01:15:11.339Z,7.36
2017-12-07T01:16:12.045Z,7.38
2017-12-07T01:17:12.770Z,7.36
2017-12-07T01:18:13.474Z,7.31
2017-12-07T01:19:14.181Z,7.35
2017-12-07T01:20:14.887Z,7.40
2017-12-07T01:21:15.592Z,7.36
2017-12-07T01:22:16.298Z,7.33
2017-12-07T01:23:17.016Z,7.29
2017-12-07T01:24:17.724Z,7.38
2017-12-07T01:25:18.429Z,7.35
2017-12-07T01:26:19.178Z,7.39
2017-12-07T01:27:19.853Z,7.29
2017-12-07T01:28:20.561Z,7.33
2017-12-07T01:29:21.272Z,7.31
2017-12-07T01:30:21.987Z,7.28
2017-12-07T01:31:22.693Z,7.38
2017-12-07T01:32:23.414Z,7.28
2017-12-07T01:33:24.121Z,7.28
2017-12-07T01:34:24.827Z,7.20
2017-12-07T01:35:25.535Z,7.24
2017-12-07T01:36:26.244Z,7.20
2017-12-07T01:37:26.964Z,7.23
2017-12-07T01:38:27.685Z,7.25
2017-12-07T01:39:28.392Z,7.20
2017-12-07T01:40:29.099Z,7.24
2017-12-07T01:41:29.819Z,7.15
2017-12-07T01:42:30.524Z,7.17
2017-12-07T01:43:31.230Z,7.21
2017-12-07T01:44:31.947Z,7.15
2017-12-07T01:45:32.655Z,7.18
2017-12-07T01:46:33.363Z,7.17
2017-12-07T01:47:34.084Z,7.15
2017-12-07T01:48:34.791Z,7.15
2017-12-07T01:49:35.494Z,7.15
2017-12-07T01:50:36.201Z,7.11
2017-12-07T01:51:36.907Z,7.11
2017-12-07T01:52:37.615Z,7.20
2017-12-07T01:53:38.319Z,7.15
2017-12-07T01:54:39.024Z,7.05
2017-12-07T01:55:39.744Z,7.10
2017-12-07T01:56:40.450Z,7.05
2017-12-07T01:57:41.154Z,7.11
2017-12-07T01:58:41.859Z,7.11
2017-12-07T01:59:42.563Z,7.11
2017-12-07T02:00:43.267Z,7.07
2017-12-07T02:01:43.973Z,7.14
2017-12-07T02:02:44.694Z,7.13
2017-12-07T02:03:45.399Z,7.07
2017-12-07T02:04:46.108Z,7.06
2017-12-07T02:05:46.814Z,7.06
2017-12-07T02:06:47.520Z,7.00
2017-12-07T02:07:48.240Z,7.11
2017-12-07T02:08:48.947Z,7.00
2017-12-07T02:09:49.669Z,7.03
2017-12-07T02:10:50.376Z,7.06
2017-12-07T02:11:51.082Z,7.14
2017-12-07T02:12:51.827Z,6.99
2017-12-07T02:13:52.495Z,7.03
2017-12-07T02:14:53.200Z,7.07
2017-12-07T02:15:53.908Z,7.02
2017-12-07T02:16:54.611Z,7.00
2017-12-07T02:17:55.327Z,7.00
2017-12-07T02:18:56.035Z,7.00
2017-12-07T02:19:56.742Z,7.03
2017-12-07T02:20:57.448Z,7.03
2017-12-07T02:21:58.174Z,7.00
2017-12-07T02:22:58.877Z,7.05
2017-12-07T02:23:59.584Z,7.00
2017-12-07T02:25:00.290Z,6.99
2017-12-07T02:26:00.995Z,6.99
2017-12-07T02:27:01.701Z,6.99
2017-12-07T02:28:02.406Z,6.96
2017-12-07T02:29:03.110Z,6.97
2017-12-07T02:30:03.817Z,6.97
2017-12-07T02:31:04.535Z,7.05
2017-12-07T02:32:05.243Z,7.00
2017-12-07T02:33:05.950Z,6.95
2017-12-07T02:34:06.655Z,6.99
2017-12-07T02:35:07.360Z,6.99
2017-12-07T02:36:08.068Z,6.97
2017-12-07T02:37:08.774Z,6.87
2017-12-07T02:38:09.494Z,7.02
2017-12-07T02:39:10.200Z,6.97
2017-12-07T02:40:10.904Z,6.95
2017-12-07T02:41:11.626Z,6.97
2017-12-07T02:42:12.342Z,6.85
2017-12-07T02:43:13.051Z,6.85
2017-12-07T02:44:13.756Z,6.88
2017-12-07T02:45:14.466Z,6.82
2017-12-07T02:46:15.171Z,6.88
2017-12-07T02:47:15.891Z,6.89
2017-12-07T02:48:16.597Z,6.84
2017-12-07T02:49:17.302Z,6.85
2017-12-07T02:50:18.008Z,6.89
2017-12-07T02:51:18.715Z,6.89
2017-12-07T02:52:19.421Z,6.87
2017-12-07T02:53:20.126Z,6.88
2017-12-07T02:54:20.831Z,6.84
2017-12-07T02:55:21.550Z,6.81
2017-12-07T02:56:22.258Z,6.79
2017-12-07T02:57:22.966Z,6.81
2017-12-07T02:58:23.685Z,6.75
2017-12-07T02:59:24.393Z,6.85
2017-12-07T03:00:25.114Z,6.81
2017-12-07T03:01:25.824Z,6.70
2017-12-07T03:02:26.530Z,6.77
2017-12-07T03:03:27.233Z,6.78
2017-12-07T03:04:27.950Z,6.78
2017-12-07T03:05:28.656Z,6.74
2017-12-07T03:06:29.362Z,6.70
2017-12-07T03:07:30.070Z,6.75
2017-12-07T03:08:30.789Z,6.70
2017-12-07T03:09:31.495Z,6.74
2017-12-07T03:10:32.210Z,6.67
2017-12-07T03:11:32.926Z,6.70
2017-12-07T03:12:33.631Z,6.66
2017-12-07T03:13:34.339Z,6.75
2017-12-07T03:14:35.060Z,6.69
2017-12-07T03:15:35.775Z,6.64
2017-12-07T03:16:36.480Z,6.66
2017-12-07T03:17:37.186Z,6.64
2017-12-07T03:18:37.894Z,6.70
2017-12-07T03:19:38.596Z,6.63
2017-12-07T03:20:39.300Z,6.59
2017-12-07T03:21:40.005Z,6.57
2017-12-07T03:22:40.710Z,6.66
2017-12-07T03:23:41.416Z,6.56
2017-12-07T03:24:42.132Z,6.52
2017-12-07T03:25:42.838Z,6.54
2017-12-07T03:26:43.544Z,6.59
2017-12-07T03:27:44.246Z,6.52
2017-12-07T03:28:44.953Z,6.48
2017-12-07T03:29:45.657Z,6.60
2017-12-07T03:30:46.362Z,6.45
2017-12-07T03:31:47.082Z,6.49
2017-12-07T03:32:47.790Z,6.54
2017-12-07T03:33:48.494Z,6.48
2017-12-07T03:34:49.201Z,6.41
2017-12-07T03:35:49.919Z,6.44
2017-12-07T03:36:50.627Z,6.44
2017-12-07T03:37:51.330Z,6.41
2017-12-07T03:38:52.037Z,6.33
2017-12-07T03:39:52.744Z,6.36
2017-12-07T03:40:53.447Z,6.35
2017-12-07T03:41:54.153Z,6.44
2017-12-07T03:42:54.856Z,6.39
2017-12-07T03:43:55.577Z,6.45
2017-12-07T03:44:56.287Z,6.42
2017-12-07T03:45:57.000Z,6.41
2017-12-07T03:46:57.725Z,6.42
2017-12-07T03:47:58.424Z,6.35
2017-12-07T03:48:59.131Z,6.35
2017-12-07T03:49:59.836Z,6.36
2017-12-07T03:51:00.557Z,6.42
2017-12-07T03:52:01.270Z,6.33
2017-12-07T03:53:01.981Z,6.36
2017-12-07T03:54:02.686Z,6.35
2017-12-07T03:55:03.391Z,6.35
2017-12-07T03:56:04.096Z,6.30
2017-12-07T03:57:04.799Z,6.20
2017-12-07T03:58:05.504Z,6.31
2017-12-07T03:59:06.210Z,6.35
2017-12-07T04:00:06.916Z,6.16
2017-12-07T04:01:07.625Z,6.19
2017-12-07T04:02:08.326Z,6.19
2017-12-07T04:03:09.033Z,6.16
2017-12-07T04:04:09.745Z,6.26
2017-12-07T04:05:10.444Z,6.26
2017-12-07T04:06:11.165Z,6.27
2017-12-07T04:07:11.870Z,6.24
2017-12-07T04:08:12.576Z,6.17
2017-12-07T04:09:13.279Z,6.19
2017-12-07T04:10:13.982Z,6.19
2017-12-07T04:11:14.686Z,6.20
2017-12-07T04:12:15.391Z,6.14
2017-12-07T04:13:16.110Z,6.20
2017-12-07T04:14:16.814Z,6.17
2017-12-07T04:15:17.518Z,6.14
2017-12-07T04:16:18.222Z,6.17
2017-12-07T04:17:18.942Z,6.16
2017-12-07T04:18:19.650Z,6.16
2017-12-07T04:19:20.359Z,6.17
2017-12-07T04:20:21.064Z,6.16
2017-12-07T04:21:21.769Z,6.12
2017-12-07T04:22:22.489Z,6.09
2017-12-07T04:23:23.192Z,6.14
2017-12-07T04:24:23.898Z,6.12
2017-12-07T04:25:24.603Z,6.02
2017-12-07T04:26:25.322Z,6.02
2017-12-07T04:27:26.029Z,6.14
2017-12-07T04:28:26.739Z,6.04
2017-12-07T04:29:27.445Z,6.08
2017-12-07T04:30:28.151Z,6.04
2017-12-07T04:31:28.856Z,6.09
2017-12-07T04:32:29.560Z,6.01
2017-12-07T04:33:30.267Z,6.04
2017-12-07T04:34:30.971Z,5.99
2017-12-07T04:35:31.689Z,6.08
2017-12-07T04:36:32.392Z,5.99
2017-12-07T04:37:33.112Z,5.94
2017-12-07T04:38:33.819Z,5.98
2017-12-07T04:39:34.525Z,5.93
2017-12-07T04:40:35.243Z,5.97
2017-12-07T04:41:35.949Z,5.97
2017-12-07T04:42:36.654Z,5.90
2017-12-07T04:43:37.360Z,5.91
2017-12-07T04:44:38.066Z,5.98
2017-12-07T04:45:38.785Z,5.91
2017-12-07T04:46:39.492Z,5.98
2017-12-07T04:47:40.200Z,5.87
2017-12-07T04:48:40.919Z,5.84
2017-12-07T04:49:41.624Z,5.94
2017-12-07T04:50:42.328Z,5.89
2017-12-07T04:51:43.036Z,5.94
2017-12-07T04:52:43.741Z,5.90
2017-12-07T04:53:44.444Z,5.94
2017-12-07T04:54:45.165Z,5.84
2017-12-07T04:55:45.870Z,5.84
2017-12-07T04:56:46.577Z,5.97
2017-12-07T04:57:47.286Z,5.84
2017-12-07T04:58:48.005Z,5.94
2017-12-07T04:59:48.712Z,5.86
2017-12-07T05:00:49.430Z,5.90
2017-12-07T05:01:50.146Z,5.83
2017-12-07T05:02:50.850Z,5.90
2017-12-07T05:03:51.554Z,5.84
2017-12-07T05:04:52.258Z,5.89
2017-12-07T05:05:52.962Z,5.90
2017-12-07T05:06:53.665Z,5.86
2017-12-07T05:07:54.369Z,5.89
2017-12-07T05:08:55.072Z,5.82
2017-12-07T05:09:55.776Z,5.84
2017-12-07T05:10:56.480Z,5.87
2017-12-07T05:11:57.195Z,5.90
2017-12-07T05:12:57.898Z,5.79
2017-12-07T05:13:58.602Z,5.83
2017-12-07T05:14:59.307Z,5.82
2017-12-07T05:16:00.013Z,5.79
2017-12-07T05:17:00.728Z,5.79
2017-12-07T05:18:01.433Z,5.76
2017-12-07T05:19:02.152Z,5.76
2017-12-07T05:20:02.871Z,5.75
2017-12-07T05:21:03.586Z,5.79
2017-12-07T05:22:04.289Z,5.82
2017-12-07T05:23:05.007Z,5.76
2017-12-07T05:24:05.713Z,5.73
2017-12-07T05:25:06.416Z,5.73
2017-12-07T05:26:07.121Z,5.80
2017-12-07T05:27:07.827Z,5.80
2017-12-07T05:28:08.529Z,5.84
2017-12-07T05:29:09.233Z,5.79
2017-12-07T05:30:09.948Z,5.76
2017-12-07T05:31:10.651Z,5.76
2017-12-07T05:32:11.355Z,5.76
2017-12-07T05:33:12.071Z,5.72
2017-12-07T05:34:12.776Z,5.79
2017-12-07T05:35:13.492Z,5.73
2017-12-07T05:36:14.208Z,5.72
2017-12-07T05:37:14.913Z,5.76
2017-12-07T05:38:15.617Z,5.73
2017-12-07T05:39:16.320Z,5.68
2017-12-07T05:40:17.023Z,5.79
2017-12-07T05:41:17.727Z,5.73
2017-12-07T05:42:18.441Z,5.75
2017-12-07T05:43:19.143Z,5.76
2017-12-07T05:44:19.847Z,5.80
2017-12-07T05:45:20.550Z,5.73
2017-12-07T05:46:21.253Z,5.79
2017-12-07T05:47:21.969Z,5.75
2017-12-07T05:48:22.674Z,5.73
2017-12-07T05:49:23.379Z,5.75
2017-12-07T05:50:24.082Z,5.73
2017-12-07T05:51:24.788Z,5.73
2017-12-07T05:52:25.503Z,5.76
2017-12-07T05:53:26.219Z,5.75
2017-12-07T05:54:26.921Z,5.71
2017-12-07T05:55:27.626Z,5.69
2017-12-07T05:56:28.331Z,5.79
2017-12-07T05:57:29.036Z,5.73
2017-12-07T05:58:29.747Z,5.73
2017-12-07T05:59:30.456Z,5.76
2017-12-07T06:00:31.161Z,5.79
2017-12-07T06:01:31.864Z,5.69
2017-12-07T06:02:32.569Z,5.72
2017-12-07T06:03:33.273Z,5.73
2017-12-07T06:04:33.978Z,5.72
2017-12-07T06:05:34.693Z,5.73
2017-12-07T06:06:35.410Z,5.76
2017-12-07T06:07:36.115Z,5.69
2017-12-07T06:08:36.822Z,5.71
2017-12-07T06:09:37.536Z,5.76
2017-12-07T06:10:38.239Z,5.68
2017-12-07T06:11:38.955Z,5.72
2017-12-07T06:12:39.661Z,5.73
2017-12-07T06:13:40.379Z,5.69
2017-12-07T06:14:41.086Z,5.76
2017-12-07T06:15:41.790Z,5.68
2017-12-07T06:16:42.507Z,5.75
2017-12-07T06:17:43.211Z,5.71
2017-12-07T06:18:43.917Z,5.59
2017-12-07T06:19:44.622Z,5.68
2017-12-07T06:20:45.339Z,5.71
2017-12-07T06:21:46.043Z,5.72
2017-12-07T06:22:46.762Z,5.69
2017-12-07T06:23:47.467Z,5.71
2017-12-07T06:24:48.171Z,5.71
2017-12-07T06:25:48.883Z,5.65
2017-12-07T06:26:49.580Z,5.62
2017-12-07T06:27:50.285Z,5.72
2017-12-07T06:28:50.991Z,5.66
2017-12-07T06:29:51.706Z,5.66
2017-12-07T06:30:52.423Z,5.71
2017-12-07T06:31:53.141Z,5.66
2017-12-07T06:32:53.846Z,5.75
2017-12-07T06:33:54.551Z,5.72
2017-12-07T06:34:55.256Z,5.71
2017-12-07T06:35:55.960Z,5.69
2017-12-07T06:36:56.663Z,5.71
2017-12-07T06:37:57.378Z,5.72
2017-12-07T06:38:58.084Z,5.68
2017-12-07T06:39:58.786Z,5.65
2017-12-07T06:40:59.489Z,5.69
2017-12-07T06:42:00.203Z,5.69
2017-12-07T06:43:00.908Z,5.71
2017-12-07T06:44:01.611Z,5.62
2017-12-07T06:45:02.317Z,5.75
2017-12-07T06:46:03.033Z,5.71
2017-12-07T06:47:03.739Z,5.69
2017-12-07T06:48:04.457Z,5.66
2017-12-07T06:49:05.160Z,5.69
2017-12-07T06:50:05.863Z,5.68
2017-12-07T06:51:06.578Z,5.65
2017-12-07T06:52:07.272Z,5.69
2017-12-07T06:53:07.977Z,5.64
2017-12-07T06:54:08.682Z,5.71
2017-12-07T06:55:09.384Z,5.62
2017-12-07T06:56:10.086Z,5.64
2017-12-07T06:57:10.789Z,5.64
2017-12-07T06:58:11.505Z,5.57
2017-12-07T06:59:12.220Z,5.54
2017-12-07T07:00:12.923Z,5.62
2017-12-07T07:01:13.628Z,5.62
2017-12-07T07:02:14.353Z,5.64
2017-12-07T07:03:15.036Z,5.69
2017-12-07T07:04:15.741Z,5.64
2017-12-07T07:05:16.445Z,5.62
2017-12-07T07:06:17.149Z,5.65
2017-12-07T07:07:17.855Z,5.66
2017-12-07T07:08:18.562Z,5.62
2017-12-07T07:09:19.280Z,5.62
2017-12-07T07:10:19.997Z,5.66
2017-12-07T07:11:20.714Z,5.66
2017-12-07T07:12:21.433Z,5.65
2017-12-07T07:13:22.138Z,5.61
2017-12-07T07:14:22.850Z,5.65
2017-12-07T07:15:23.557Z,5.65
2017-12-07T07:16:24.276Z,5.69
2017-12-07T07:17:24.981Z,5.68
2017-12-07T07:18:25.685Z,5.62
2017-12-07T07:19:26.389Z,5.69
2017-12-07T07:20:27.095Z,5.61
2017-12-07T07:21:27.804Z,5.68
2017-12-07T07:22:28.522Z,5.65
2017-12-07T07:23:29.228Z,5.65
2017-12-07T07:24:29.943Z,5.64
2017-12-07T07:25:30.640Z,5.57
2017-12-07T07:26:31.359Z,5.64
2017-12-07T07:27:32.064Z,5.64
2017-12-07T07:28:32.771Z,5.62
2017-12-07T07:29:33.478Z,5.56
2017-12-07T07:30:34.187Z,5.65
2017-12-07T07:31:34.895Z,5.54
2017-12-07T07:32:35.601Z,5.64
2017-12-07T07:33:36.320Z,5.57
2017-12-07T07:34:37.026Z,5.57
2017-12-07T07:35:37.747Z,5.59
2017-12-07T07:36:38.454Z,5.53
2017-12-07T07:37:39.160Z,5.59
2017-12-07T07:38:39.868Z,5.53
2017-12-07T07:39:40.573Z,5.48
2017-12-07T07:40:41.292Z,5.59
2017-12-07T07:41:41.999Z,5.50
2017-12-07T07:42:42.708Z,5.44
2017-12-07T07:43:43.415Z,5.48
2017-12-07T07:44:44.125Z,5.47
2017-12-07T07:45:44.846Z,5.41
2017-12-07T07:46:45.553Z,5.47
2017-12-07T07:47:46.260Z,5.47
2017-12-07T07:48:46.968Z,5.47
2017-12-07T07:49:47.675Z,5.48
2017-12-07T07:50:48.384Z,5.48
2017-12-07T07:51:49.092Z,5.50
2017-12-07T07:52:49.801Z,5.44
2017-12-07T07:53:50.509Z,5.50
2017-12-07T07:54:51.217Z,5.47
2017-12-07T07:55:51.924Z,5.43
2017-12-07T07:56:52.631Z,5.44
2017-12-07T07:57:53.339Z,5.43
2017-12-07T07:58:54.050Z,5.44
2017-12-07T07:59:54.768Z,5.46
2017-12-07T08:00:55.490Z,5.50
2017-12-07T08:01:56.196Z,5.41
2017-12-07T08:02:56.914Z,5.48
2017-12-07T08:03:57.620Z,5.47
2017-12-07T08:04:58.335Z,5.53
2017-12-07T08:05:59.049Z,5.44
2017-12-07T08:06:59.757Z,5.48
2017-12-07T08:08:00.466Z,5.47
2017-12-07T08:09:01.176Z,5.39
2017-12-07T08:10:01.886Z,5.41
2017-12-07T08:11:02.595Z,5.44
2017-12-07T08:12:03.306Z,5.47
2017-12-07T08:13:04.014Z,5.47
2017-12-07T08:14:04.722Z,5.46
2017-12-07T08:15:05.443Z,5.44
2017-12-07T08:16:06.151Z,5.41
2017-12-07T08:17:06.860Z,5.46
2017-12-07T08:18:07.571Z,5.44
2017-12-07T08:19:08.281Z,5.39
2017-12-07T08:20:08.985Z,5.53
2017-12-07T08:21:09.693Z,5.50
2017-12-07T08:22:10.402Z,5.47
2017-12-07T08:23:11.112Z,5.39
2017-12-07T08:24:11.820Z,5.50
2017-12-07T08:25:12.531Z,5.43
2017-12-07T08:26:13.238Z,5.47
2017-12-07T08:27:13.958Z,5.47
2017-12-07T08:28:14.666Z,5.44
2017-12-07T08:29:15.377Z,5.47
2017-12-07T08:30:16.090Z,5.53
2017-12-07T08:31:16.812Z,5.51
2017-12-07T08:32:17.520Z,5.62
2017-12-07T08:33:18.242Z,5.48
2017-12-07T08:34:18.979Z,5.53
2017-12-07T08:35:19.659Z,5.61
2017-12-07T08:36:20.370Z,5.48
2017-12-07T08:37:21.082Z,5.54
2017-12-07T08:38:21.792Z,5.46
2017-12-07T08:39:22.503Z,5.46
2017-12-07T08:40:23.281Z,5.54
2017-12-07T08:41:23.926Z,5.62
2017-12-07T08:42:24.635Z,5.75
2017-12-07T08:43:25.357Z,5.69
2017-12-07T08:44:26.066Z,5.64
2017-12-07T08:45:26.772Z,5.57
2017-12-07T08:46:27.482Z,5.56
2017-12-07T08:47:28.191Z,5.53
2017-12-07T08:48:28.913Z,5.50
2017-12-07T08:49:29.630Z,5.54
2017-12-07T08:50:30.346Z,5.46
2017-12-07T08:51:31.055Z,5.51
2017-12-07T08:52:31.763Z,5.38
2017-12-07T08:53:32.473Z,5.29
2017-12-07T08:54:33.183Z,5.36
2017-12-07T08:55:33.912Z,5.39
2017-12-07T08:56:34.614Z,5.41
2017-12-07T08:57:35.337Z,5.38
2017-12-07T08:58:36.058Z,5.35
2017-12-07T08:59:36.769Z,5.44
2017-12-07T09:00:37.479Z,5.44
2017-12-07T09:01:38.189Z,5.41
2017-12-07T09:02:38.899Z,5.41
2017-12-07T09:03:39.608Z,5.38
2017-12-07T09:04:40.321Z,5.38
2017-12-07T09:05:41.032Z,5.39
2017-12-07T09:06:41.742Z,5.48
2017-12-07T09:07:42.450Z,5.51
2017-12-07T09:08:43.162Z,5.46
2017-12-07T09:09:43.873Z,5.48
2017-12-07T09:10:44.583Z,5.44
2017-12-07T09:11:45.295Z,5.51
2017-12-07T09:12:46.007Z,5.47
2017-12-07T09:13:46.759Z,5.47
2017-12-07T09:14:47.426Z,5.48
2017-12-07T09:15:48.147Z,5.50
2017-12-07T09:16:48.855Z,5.51
2017-12-07T09:17:49.567Z,5.51
2017-12-07T09:18:50.289Z,5.48
2017-12-07T09:19:51.002Z,5.56
2017-12-07T09:20:51.714Z,5.59
2017-12-07T09:21:52.437Z,5.61
2017-12-07T09:22:53.148Z,5.57
2017-12-07T09:23:53.860Z,5.59
2017-12-07T09:24:54.572Z,5.64
2017-12-07T09:25:55.284Z,5.66
2017-12-07T09:26:56.038Z,5.79
2017-12-07T09:27:56.709Z,5.94
2017-12-07T09:28:57.435Z,6.41
2017-12-07T09:29:58.149Z,6.60
2017-12-07T09:30:58.864Z,6.89
2017-12-07T09:31:59.581Z,6.79
2017-12-07T09:33:00.294Z,6.70
2017-12-07T09:34:01.009Z,7.11
2017-12-07T09:35:01.725Z,7.25
2017-12-07T09:36:02.444Z,7.73
2017-12-07T09:37:03.170Z,7.05
2017-12-07T09:38:03.885Z,6.70
2017-12-07T09:39:04.599Z,6.56
2017-12-07T09:40:05.313Z,6.44
2017-12-07T09:41:06.038Z,6.20
2017-12-07T09:42:06.755Z,5.97
2017-12-07T09:43:07.480Z,5.94
2017-12-07T09:44:08.192Z,5.83
2017-12-07T09:45:08.918Z,5.68
2017-12-07T09:46:09.690Z,5.62
2017-12-07T09:47:10.342Z,5.65
2017-12-07T09:48:11.055Z,5.62
2017-12-07T09:49:11.766Z,5.61
2017-12-07T09:50:12.488Z,5.46
2017-12-07T09:51:13.210Z,5.43
2017-12-07T09:52:13.919Z,5.48
2017-12-07T09:53:14.629Z,5.47
2017-12-07T09:54:15.339Z,5.46
2017-12-07T09:55:16.051Z,5.43
2017-12-07T09:56:16.759Z,5.39
2017-12-07T09:57:17.481Z,5.41
2017-12-07T09:58:18.203Z,5.30
2017-12-07T09:59:18.911Z,5.39
2017-12-07T10:00:19.622Z,5.33
2017-12-07T10:01:20.343Z,5.44
2017-12-07T10:02:21.055Z,5.35
2017-12-07T10:03:21.765Z,5.41
2017-12-07T10:04:22.475Z,5.44
2017-12-07T10:05:23.186Z,5.38
2017-12-07T10:06:23.896Z,5.32
2017-12-07T10:07:24.604Z,5.36
2017-12-07T10:08:25.315Z,5.35
2017-12-07T10:09:26.028Z,5.29
2017-12-07T10:10:26.750Z,5.33
2017-12-07T10:11:27.473Z,5.26
2017-12-07T10:12:28.184Z,5.30
2017-12-07T10:13:28.893Z,5.26
2017-12-07T10:14:29.614Z,5.35
2017-12-07T10:15:30.325Z,5.35
2017-12-07T10:16:31.057Z,5.35
2017-12-07T10:17:31.758Z,5.36
2017-12-07T10:18:32.466Z,5.36
2017-12-07T10:19:33.177Z,5.33
2017-12-07T10:20:33.889Z,5.36
2017-12-07T10:21:34.601Z,5.36
2017-12-07T10:22:35.312Z,5.35
2017-12-07T10:23:36.024Z,5.35
2017-12-07T10:24:36.736Z,5.32
2017-12-07T10:25:37.445Z,5.43
2017-12-07T10:26:38.168Z,5.44
2017-12-07T10:27:38.879Z,5.39
2017-12-07T10:28:39.601Z,5.47
2017-12-07T10:29:40.322Z,5.50
2017-12-07T10:30:41.032Z,5.47
2017-12-07T10:31:41.743Z,5.48
2017-12-07T10:32:42.459Z,5.48
2017-12-07T10:33:43.164Z,5.47
2017-12-07T10:34:43.874Z,5.51
2017-12-07T10:35:44.597Z,5.46
2017-12-07T10:36:45.308Z,5.59
2017-12-07T10:37:46.019Z,5.47
2017-12-07T10:38:46.743Z,5.66
2017-12-07T10:39:47.453Z,5.71
2017-12-07T10:40:48.164Z,5.64
2017-12-07T10:41:48.873Z,5.62
2017-12-07T10:42:49.584Z,5.61
2017-12-07T10:43:50.296Z,5.61
2017-12-07T10:44:51.007Z,5.56
2017-12-07T10:45:51.718Z,5.51
2017-12-07T10:46:52.426Z,5.51
2017-12-07T10:47:53.147Z,5.51
2017-12-07T10:48:53.858Z,5.48
2017-12-07T10:49:54.569Z,5.50
2017-12-07T10:50:55.281Z,5.48
2017-12-07T10:51:55.990Z,5.51
2017-12-07T10:52:56.699Z,5.57
2017-12-07T10:53:57.430Z,5.62
2017-12-07T10:54:58.126Z,5.64
2017-12-07T10:55:58.833Z,5.65
2017-12-07T10:56:59.544Z,5.57
2017-12-07T10:58:00.254Z,5.56
2017-12-07T10:59:00.968Z,5.64
2017-12-07T11:00:01.681Z,5.61
2017-12-07T11:01:02.402Z,5.64
2017-12-07T11:02:03.123Z,5.56
2017-12-07T11:03:03.834Z,5.56
2017-12-07T11:04:04.554Z,5.61
2017-12-07T11:05:05.265Z,5.57
2017-12-07T11:06:05.976Z,5.68
2017-12-07T11:07:06.687Z,5.71
2017-12-07T11:08:07.411Z,5.65
2017-12-07T11:09:08.121Z,5.64
2017-12-07T11:10:08.846Z,5.61
2017-12-07T11:11:09.556Z,5.59
2017-12-07T11:12:10.278Z,5.65
2017-12-07T11:13:11.001Z,5.65
2017-12-07T11:14:11.722Z,5.65
2017-12-07T11:15:12.446Z,5.66
2017-12-07T11:16:13.155Z,5.75
2017-12-07T11:17:13.868Z,5.73
2017-12-07T11:18:14.589Z,5.72
2017-12-07T11:19:15.311Z,5.66
2017-12-07T11:20:16.021Z,5.68
2017-12-07T11:21:16.731Z,5.65
2017-12-07T11:22:17.439Z,5.65
2017-12-07T11:23:18.199Z,5.66
2017-12-07T11:24:18.859Z,5.68
2017-12-07T11:25:19.570Z,5.62
2017-12-07T11:26:20.279Z,5.61
2017-12-07T11:27:21.004Z,5.62
2017-12-07T11:28:21.726Z,5.65
2017-12-07T11:29:22.436Z,5.57
2017-12-07T11:30:23.148Z,5.65
2017-12-07T11:31:23.861Z,5.65
2017-12-07T11:32:24.570Z,5.62
2017-12-07T11:33:25.279Z,5.64
2017-12-07T11:34:25.990Z,5.66
2017-12-07T11:35:26.698Z,5.68
2017-12-07T11:36:27.408Z,5.65
2017-12-07T11:37:28.117Z,5.73
2017-12-07T11:38:28.829Z,5.71
2017-12-07T11:39:29.551Z,5.79
2017-12-07T11:40:30.274Z,5.65
2017-12-07T11:41:30.983Z,5.71
2017-12-07T11:42:31.690Z,5.75
2017-12-07T11:43:32.400Z,5.64
2017-12-07T11:44:33.111Z,5.69
2017-12-07T11:45:33.819Z,5.73
2017-12-07T11:46:34.531Z,5.71
2017-12-07T11:47:35.239Z,5.64
2017-12-07T11:48:35.957Z,5.73
2017-12-07T11:49:36.664Z,5.76
2017-12-07T11:50:37.375Z,5.61
2017-12-07T11:51:38.086Z,5.68
2017-12-07T11:52:38.796Z,5.69
2017-12-07T11:53:39.504Z,5.65
2017-12-07T11:54:40.212Z,5.73
2017-12-07T11:55:40.922Z,5.80
2017-12-07T11:56:41.637Z,5.76
2017-12-07T11:57:42.342Z,5.80
2017-12-07T11:58:43.052Z,5.82
2017-12-07T11:59:43.762Z,5.89
2017-12-07T12:00:44.473Z,5.87
2017-12-07T12:01:45.196Z,5.91
2017-12-07T12:02:45.919Z,5.90
2017-12-07T12:03:46.628Z,5.87
2017-12-07T12:04:47.337Z,5.87
2017-12-07T12:05:48.045Z,5.80
2017-12-07T12:06:48.768Z,5.87
2017-12-07T12:07:49.491Z,5.84
2017-12-07T12:08:50.200Z,5.90
2017-12-07T12:09:50.910Z,5.86
2017-12-07T12:10:51.619Z,5.79
2017-12-07T12:11:52.344Z,5.91
2017-12-07T12:12:53.052Z,5.94
2017-12-07T12:13:53.760Z,5.90
2017-12-07T12:14:54.470Z,5.90
2017-12-07T12:15:55.180Z,5.87
2017-12-07T12:16:55.889Z,5.87
2017-12-07T12:17:56.597Z,6.01
2017-12-07T12:18:57.321Z,5.89
2017-12-07T12:19:58.032Z,5.91
2017-12-07T12:20:58.741Z,5.93
2017-12-07T12:21:59.452Z,5.97
2017-12-07T12:23:00.163Z,5.91
2017-12-07T12:24:00.872Z,5.93
2017-12-07T12:25:01.585Z,5.91
2017-12-07T12:26:02.289Z,5.97
2017-12-07T12:27:03.000Z,5.91
2017-12-07T12:28:03.710Z,5.94
2017-12-07T12:29:04.422Z,5.94
2017-12-07T12:30:05.138Z,5.91
2017-12-07T12:31:05.849Z,6.01
2017-12-07T12:32:06.572Z,5.87
2017-12-07T12:33:07.281Z,5.97
2017-12-07T12:34:07.991Z,5.99
2017-12-07T12:35:08.702Z,5.93
2017-12-07T12:36:09.423Z,6.07
2017-12-07T12:37:10.135Z,6.04
2017-12-07T12:38:10.842Z,6.05
2017-12-07T12:39:11.557Z,6.07
2017-12-07T12:40:12.274Z,6.09
2017-12-07T12:41:12.983Z,6.14
2017-12-07T12:42:13.694Z,6.16
2017-12-07T12:43:14.404Z,6.11
2017-12-07T12:44:15.114Z,6.14
2017-12-07T12:45:15.822Z,6.19
2017-12-07T12:46:16.533Z,6.16
2017-12-07T12:47:17.242Z,6.19
2017-12-07T12:48:17.949Z,6.14
2017-12-07T12:49:18.658Z,6.20
2017-12-07T12:50:19.370Z,6.20
2017-12-07T12:51:20.093Z,6.16
2017-12-07T12:52:20.813Z,6.24
2017-12-07T12:53:21.522Z,6.17
2017-12-07T12:54:22.235Z,6.31
2017-12-07T12:55:22.944Z,6.33
2017-12-07T12:56:23.653Z,6.44
2017-12-07T12:57:24.363Z,6.35
2017-12-07T12:58:25.073Z,6.31
2017-12-07T12:59:25.784Z,6.35
2017-12-07T13:00:26.493Z,6.39
2017-12-07T13:01:27.203Z,6.36
2017-12-07T13:02:27.914Z,6.38
2017-12-07T13:03:28.624Z,6.36
2017-12-07T13:04:29.334Z,6.41
2017-12-07T13:05:30.042Z,6.39
2017-12-07T13:06:30.753Z,6.39
2017-12-07T13:07:31.464Z,6.39
2017-12-07T13:08:32.174Z,6.36
2017-12-07T13:09:32.882Z,6.42
2017-12-07T13:10:33.604Z,6.38
2017-12-07T13:11:34.313Z,6.45
2017-12-07T13:12:35.034Z,6.48
2017-12-07T13:13:35.758Z,6.38
2017-12-07T13:14:36.463Z,6.39
2017-12-07T13:15:37.174Z,6.42
2017-12-07T13:16:37.883Z,6.42
2017-12-07T13:17:38.592Z,6.39
2017-12-07T13:18:39.301Z,6.41
2017-12-07T13:19:40.026Z,6.41
2017-12-07T13:20:40.733Z,6.48
2017-12-07T13:21:41.440Z,6.56
2017-12-07T13:22:42.152Z,6.52
2017-12-07T13:23:42.862Z,6.46
2017-12-07T13:24:43.584Z,6.63
2017-12-07T13:25:44.295Z,6.57
2017-12-07T13:26:45.003Z,6.51
2017-12-07T13:27:45.716Z,6.54
2017-12-07T13:28:46.436Z,6.54